Alpachiri, Argentina
Current Conditions -  °F | °C
As of 4:00 PM on Tuesday 21 Oct 2014 (Local Time) from SANT Reporting Station
Broken Clouds Broken Clouds  
Wind Chill: 93°   Ceiling: 4000
Heat Index: 93°   Visibility: 6mi
Dew Point: 61°   Wind: 18mph
Humidity: 34%   Direction: 360°N
Pressure: 29.94"   Gusts: NA
Location:  27.33°S, 65.75°W
Report Text: SANT 211900Z 36016KT 9999 BKN040 BKN20034/16 Q1014
Loading
Personal Weather Stations






























Interactive Weather Map
Tropical Storm Tracking
New forecast layout! Learn more

10-Day Weather Forecast

Advertisements
Track Severe Weather on mobile